sensor_id;sensor_type;location;lat;lon;timestamp;P1;durP1;ratioP1;P2;durP2;ratioP2
19965;SDS011;10144;50.874;4.762;2022-08-03T00:05:44;7.25;;;2.00;;
19965;SDS011;10144;50.874;4.762;2022-08-03T00:11:34;7.10;;;1.95;;
19965;SDS011;10144;50.874;4.762;2022-08-03T00:17:30;5.85;;;1.70;;
19965;SDS011;10144;50.874;4.762;2022-08-03T00:23:18;5.38;;;2.08;;
19965;SDS011;10144;50.874;4.762;2022-08-03T00:29:06;7.68;;;1.80;;
19965;SDS011;10144;50.874;4.762;2022-08-03T00:34:55;5.18;;;1.83;;
19965;SDS011;10144;50.874;4.762;2022-08-03T00:40:43;4.57;;;1.60;;
19965;SDS011;10144;50.874;4.762;2022-08-03T00:46:31;4.22;;;1.75;;
19965;SDS011;10144;50.874;4.762;2022-08-03T00:52:19;7.10;;;1.67;;
19965;SDS011;10144;50.874;4.762;2022-08-03T00:58:07;5.18;;;1.60;;
19965;SDS011;10144;50.874;4.762;2022-08-03T01:03:57;4.50;;;1.67;;
19965;SDS011;10144;50.874;4.762;2022-08-03T01:09:48;4.22;;;1.48;;
19965;SDS011;10144;50.874;4.762;2022-08-03T01:16:32;5.75;;;1.60;;
19965;SDS011;10144;50.874;4.762;2022-08-03T01:35:40;7.63;;;1.60;;
19965;SDS011;10144;50.874;4.762;2022-08-03T01:41:41;7.15;;;1.95;;
19965;SDS011;10144;50.874;4.762;2022-08-03T01:51:03;2.90;;;1.38;;
19965;SDS011;10144;50.874;4.762;2022-08-03T01:56:54;4.75;;;1.55;;
19965;SDS011;10144;50.874;4.762;2022-08-03T02:02:46;7.18;;;1.70;;
19965;SDS011;10144;50.874;4.762;2022-08-03T02:08:41;6.75;;;1.73;;
19965;SDS011;10144;50.874;4.762;2022-08-03T02:14:32;4.80;;;1.70;;
19965;SDS011;10144;50.874;4.762;2022-08-03T02:20:24;3.85;;;1.70;;
19965;SDS011;10144;50.874;4.762;2022-08-03T02:26:16;6.40;;;1.73;;
19965;SDS011;10144;50.874;4.762;2022-08-03T02:32:12;6.40;;;1.67;;
19965;SDS011;10144;50.874;4.762;2022-08-03T02:38:06;8.85;;;2.17;;
19965;SDS011;10144;50.874;4.762;2022-08-03T02:44:01;6.68;;;1.70;;
19965;SDS011;10144;50.874;4.762;2022-08-03T02:49:57;6.93;;;1.75;;
19965;SDS011;10144;50.874;4.762;2022-08-03T02:55:48;5.90;;;1.92;;
19965;SDS011;10144;50.874;4.762;2022-08-03T03:01:45;7.07;;;1.70;;
19965;SDS011;10144;50.874;4.762;2022-08-03T03:07:34;8.68;;;1.77;;
19965;SDS011;10144;50.874;4.762;2022-08-03T03:13:28;5.65;;;2.13;;
19965;SDS011;10144;50.874;4.762;2022-08-03T03:19:00;5.82;;;1.98;;
19965;SDS011;10144;50.874;4.762;2022-08-03T03:24:58;3.50;;;1.98;;
19965;SDS011;10144;50.874;4.762;2022-08-03T03:30:59;5.45;;;1.85;;
19965;SDS011;10144;50.874;4.762;2022-08-03T03:36:55;4.72;;;2.00;;
19965;SDS011;10144;50.874;4.762;2022-08-03T03:42:45;4.28;;;1.95;;
19965;SDS011;10144;50.874;4.762;2022-08-03T03:48:34;7.45;;;2.38;;
19965;SDS011;10144;50.874;4.762;2022-08-03T03:54:23;7.15;;;2.20;;
19965;SDS011;10144;50.874;4.762;2022-08-03T04:00:12;6.90;;;2.15;;
19965;SDS011;10144;50.874;4.762;2022-08-03T04:06:01;5.13;;;2.08;;
19965;SDS011;10144;50.874;4.762;2022-08-03T04:12:12;10.63;;;2.42;;
19965;SDS011;10144;50.874;4.762;2022-08-03T04:23:19;6.53;;;2.40;;
19965;SDS011;10144;50.874;4.762;2022-08-03T04:29:11;7.00;;;2.20;;
19965;SDS011;10144;50.874;4.762;2022-08-03T04:35:01;6.28;;;2.17;;
19965;SDS011;10144;50.874;4.762;2022-08-03T04:40:54;6.22;;;2.10;;
19965;SDS011;10144;50.874;4.762;2022-08-03T04:46:46;7.45;;;2.38;;
19965;SDS011;10144;50.874;4.762;2022-08-03T04:52:42;6.90;;;2.33;;
19965;SDS011;10144;50.874;4.762;2022-08-03T05:26:58;6.40;;;2.10;;
19965;SDS011;10144;50.874;4.762;2022-08-03T05:35:28;5.05;;;1.90;;
19965;SDS011;10144;50.874;4.762;2022-08-03T05:41:20;6.75;;;2.28;;
19965;SDS011;10144;50.874;4.762;2022-08-03T07:36:51;7.80;;;1.50;;
19965;SDS011;10144;50.874;4.762;2022-08-03T07:42:39;8.32;;;1.60;;
19965;SDS011;10144;50.874;4.762;2022-08-03T07:48:31;5.13;;;1.77;;
19965;SDS011;10144;50.874;4.762;2022-08-03T07:54:19;6.53;;;1.95;;
19965;SDS011;10144;50.874;4.762;2022-08-03T08:00:15;5.88;;;1.70;;
19965;SDS011;10144;50.874;4.762;2022-08-03T08:06:07;6.18;;;1.70;;
19965;SDS011;10144;50.874;4.762;2022-08-03T08:11:57;4.68;;;1.52;;
19965;SDS011;10144;50.874;4.762;2022-08-03T08:17:46;5.57;;;1.50;;
19965;SDS011;10144;50.874;4.762;2022-08-03T08:23:40;6.30;;;1.77;;
19965;SDS011;10144;50.874;4.762;2022-08-03T08:29:27;11.60;;;1.80;;
19965;SDS011;10144;50.874;4.762;2022-08-03T08:31:53;6.57;;;1.50;;
19965;SDS011;10144;50.874;4.762;2022-08-03T08:37:41;5.68;;;1.65;;
19965;SDS011;10144;50.874;4.762;2022-08-03T08:43:32;9.73;;;1.73;;
19965;SDS011;10144;50.874;4.762;2022-08-03T08:49:22;6.90;;;1.38;;
19965;SDS011;10144;50.874;4.762;2022-08-03T08:55:21;10.38;;;1.73;;
19965;SDS011;10144;50.874;4.762;2022-08-03T09:01:12;5.22;;;1.80;;
19965;SDS011;10144;50.874;4.762;2022-08-03T09:07:08;6.22;;;1.50;;
19965;SDS011;10144;50.874;4.762;2022-08-03T09:12:56;6.78;;;1.77;;
19965;SDS011;10144;50.874;4.762;2022-08-03T09:18:45;5.60;;;1.38;;
19965;SDS011;10144;50.874;4.762;2022-08-03T09:24:36;6.22;;;1.20;;
19965;SDS011;10144;50.874;4.762;2022-08-03T09:30:25;2.17;;;1.20;;
19965;SDS011;10144;50.874;4.762;2022-08-03T09:42:57;3.75;;;1.10;;
19965;SDS011;10144;50.874;4.762;2022-08-03T09:48:45;3.65;;;1.25;;
19965;SDS011;10144;50.874;4.762;2022-08-03T09:54:33;8.68;;;1.48;;
19965;SDS011;10144;50.874;4.762;2022-08-03T10:00:21;9.27;;;1.30;;
19965;SDS011;10144;50.874;4.762;2022-08-03T10:06:16;5.07;;;1.20;;
19965;SDS011;10144;50.874;4.762;2022-08-03T10:12:12;7.18;;;1.70;;
19965;SDS011;10144;50.874;4.762;2022-08-03T10:18:00;7.63;;;1.50;;
19965;SDS011;10144;50.874;4.762;2022-08-03T10:23:48;2.95;;;1.30;;
19965;SDS011;10144;50.874;4.762;2022-08-03T10:29:44;3.83;;;1.23;;
19965;SDS011;10144;50.874;4.762;2022-08-03T10:35:36;2.22;;;1.30;;
19965;SDS011;10144;50.874;4.762;2022-08-03T10:41:30;8.93;;;1.40;;
19965;SDS011;10144;50.874;4.762;2022-08-03T10:47:20;2.90;;;1.30;;
19965;SDS011;10144;50.874;4.762;2022-08-03T10:53:15;3.13;;;1.42;;
19965;SDS011;10144;50.874;4.762;2022-08-03T11:05:32;5.93;;;1.30;;
19965;SDS011;10144;50.874;4.762;2022-08-03T11:17:09;8.30;;;1.30;;
19965;SDS011;10144;50.874;4.762;2022-08-03T11:22:57;2.65;;;1.30;;
19965;SDS011;10144;50.874;4.762;2022-08-03T11:35:21;12.73;;;1.60;;
19965;SDS011;10144;50.874;4.762;2022-08-03T11:41:31;6.70;;;1.33;;
19965;SDS011;10144;50.874;4.762;2022-08-03T11:47:21;2.30;;;1.23;;
19965;SDS011;10144;50.874;4.762;2022-08-03T11:53:13;6.35;;;1.75;;
19965;SDS011;10144;50.874;4.762;2022-08-03T11:59:03;4.80;;;1.55;;
19965;SDS011;10144;50.874;4.762;2022-08-03T12:11:36;7.55;;;1.52;;
19965;SDS011;10144;50.874;4.762;2022-08-03T12:24:09;9.30;;;1.67;;
19965;SDS011;10144;50.874;4.762;2022-08-03T12:29:57;3.88;;;1.77;;
19965;SDS011;10144;50.874;4.762;2022-08-03T12:36:00;4.18;;;1.60;;
19965;SDS011;10144;50.874;4.762;2022-08-03T12:41:56;3.53;;;1.52;;
19965;SDS011;10144;50.874;4.762;2022-08-03T12:54:28;4.97;;;1.50;;
19965;SDS011;10144;50.874;4.762;2022-08-03T13:00:18;4.97;;;1.50;;
19965;SDS011;10144;50.874;4.762;2022-08-03T13:06:10;4.93;;;1.52;;
19965;SDS011;10144;50.874;4.762;2022-08-03T13:18:43;1.60;;;1.20;;
19965;SDS011;10144;50.874;4.762;2022-08-03T13:24:32;3.22;;;1.40;;
19965;SDS011;10144;50.874;4.762;2022-08-03T13:30:20;3.17;;;1.70;;
19965;SDS011;10144;50.874;4.762;2022-08-03T13:42:52;4.90;;;1.45;;
19965;SDS011;10144;50.874;4.762;2022-08-03T13:48:42;2.28;;;1.20;;
19965;SDS011;10144;50.874;4.762;2022-08-03T13:54:31;2.83;;;1.30;;
19965;SDS011;10144;50.874;4.762;2022-08-03T14:00:20;3.75;;;1.30;;
19965;SDS011;10144;50.874;4.762;2022-08-03T14:06:11;4.25;;;1.38;;
19965;SDS011;10144;50.874;4.762;2022-08-03T14:12:00;2.85;;;1.50;;
19965;SDS011;10144;50.874;4.762;2022-08-03T14:17:48;2.83;;;1.40;;
19965;SDS011;10144;50.874;4.762;2022-08-03T14:23:36;2.63;;;1.35;;
19965;SDS011;10144;50.874;4.762;2022-08-03T14:29:34;5.10;;;1.48;;
19965;SDS011;10144;50.874;4.762;2022-08-03T14:35:14;5.20;;;1.38;;
19965;SDS011;10144;50.874;4.762;2022-08-03T14:47:06;6.32;;;1.48;;
19965;SDS011;10144;50.874;4.762;2022-08-03T15:04:16;3.65;;;1.58;;
19965;SDS011;10144;50.874;4.762;2022-08-03T15:12:47;3.15;;;1.30;;
19965;SDS011;10144;50.874;4.762;2022-08-03T15:18:35;5.93;;;1.50;;
19965;SDS011;10144;50.874;4.762;2022-08-03T15:24:22;2.45;;;1.20;;
19965;SDS011;10144;50.874;4.762;2022-08-03T15:30:13;5.68;;;1.45;;
19965;SDS011;10144;50.874;4.762;2022-08-03T15:39:53;2.08;;;1.13;;
19965;SDS011;10144;50.874;4.762;2022-08-03T15:49:02;2.17;;;1.20;;
19965;SDS011;10144;50.874;4.762;2022-08-03T15:54:50;4.10;;;1.40;;
19965;SDS011;10144;50.874;4.762;2022-08-03T16:00:38;3.67;;;1.40;;
19965;SDS011;10144;50.874;4.762;2022-08-03T16:06:27;4.95;;;1.23;;
19965;SDS011;10144;50.874;4.762;2022-08-03T16:12:15;3.15;;;1.40;;
19965;SDS011;10144;50.874;4.762;2022-08-03T16:18:06;6.68;;;1.67;;
19965;SDS011;10144;50.874;4.762;2022-08-03T16:26:42;4.60;;;1.38;;
19965;SDS011;10144;50.874;4.762;2022-08-03T16:32:30;3.78;;;1.30;;
19965;SDS011;10144;50.874;4.762;2022-08-03T16:38:19;3.97;;;1.60;;
19965;SDS011;10144;50.874;4.762;2022-08-03T16:44:07;3.63;;;1.10;;
19965;SDS011;10144;50.874;4.762;2022-08-03T16:49:55;5.30;;;1.45;;
19965;SDS011;10144;50.874;4.762;2022-08-03T16:55:42;3.38;;;1.30;;
19965;SDS011;10144;50.874;4.762;2022-08-03T17:04:53;5.88;;;1.17;;
19965;SDS011;10144;50.874;4.762;2022-08-03T17:10:43;2.10;;;1.20;;
19965;SDS011;10144;50.874;4.762;2022-08-03T17:16:32;3.97;;;1.50;;
19965;SDS011;10144;50.874;4.762;2022-08-03T17:22:30;6.57;;;1.30;;
19965;SDS011;10144;50.874;4.762;2022-08-03T17:28:21;5.65;;;1.50;;
19965;SDS011;10144;50.874;4.762;2022-08-03T17:34:14;4.18;;;1.65;;
19965;SDS011;10144;50.874;4.762;2022-08-03T17:40:03;7.45;;;1.48;;
19965;SDS011;10144;50.874;4.762;2022-08-03T17:45:52;11.18;;;1.98;;
19965;SDS011;10144;50.874;4.762;2022-08-03T18:51:29;5.30;;;1.30;;
19965;SDS011;10144;50.874;4.762;2022-08-03T18:57:28;7.00;;;1.63;;
19965;SDS011;10144;50.874;4.762;2022-08-03T19:03:30;8.55;;;1.50;;
19965;SDS011;10144;50.874;4.762;2022-08-03T19:09:26;8.30;;;2.17;;
19965;SDS011;10144;50.874;4.762;2022-08-03T19:15:38;4.45;;;1.67;;
19965;SDS011;10144;50.874;4.762;2022-08-03T19:21:31;4.45;;;1.40;;
19965;SDS011;10144;50.874;4.762;2022-08-03T19:27:21;8.35;;;1.60;;
19965;SDS011;10144;50.874;4.762;2022-08-03T19:33:13;8.48;;;1.80;;
19965;SDS011;10144;50.874;4.762;2022-08-03T19:39:03;3.35;;;1.35;;
19965;SDS011;10144;50.874;4.762;2022-08-03T19:44:54;8.23;;;1.60;;
19965;SDS011;10144;50.874;4.762;2022-08-03T19:50:48;6.90;;;1.30;;
19965;SDS011;10144;50.874;4.762;2022-08-03T19:56:43;5.97;;;1.38;;
19965;SDS011;10144;50.874;4.762;2022-08-03T20:02:34;3.90;;;1.30;;
19965;SDS011;10144;50.874;4.762;2022-08-03T20:08:24;3.95;;;1.40;;
19965;SDS011;10144;50.874;4.762;2022-08-03T20:14:15;5.45;;;1.75;;
19965;SDS011;10144;50.874;4.762;2022-08-03T20:20:05;4.03;;;1.48;;
19965;SDS011;10144;50.874;4.762;2022-08-03T20:25:55;7.95;;;1.50;;
19965;SDS011;10144;50.874;4.762;2022-08-03T20:31:46;5.25;;;1.40;;
19965;SDS011;10144;50.874;4.762;2022-08-03T20:37:39;5.43;;;1.40;;
19965;SDS011;10144;50.874;4.762;2022-08-03T20:43:28;5.70;;;1.15;;
19965;SDS011;10144;50.874;4.762;2022-08-03T20:52:50;4.20;;;1.40;;
19965;SDS011;10144;50.874;4.762;2022-08-03T20:58:41;3.78;;;1.30;;
19965;SDS011;10144;50.874;4.762;2022-08-03T21:01:16;1.48;;;1.13;;
19965;SDS011;10144;50.874;4.762;2022-08-03T21:07:05;6.88;;;1.38;;
19965;SDS011;10144;50.874;4.762;2022-08-03T21:13:11;7.15;;;1.85;;
19965;SDS011;10144;50.874;4.762;2022-08-03T21:18:22;6.35;;;1.90;;
19965;SDS011;10144;50.874;4.762;2022-08-03T21:24:11;9.32;;;2.13;;
19965;SDS011;10144;50.874;4.762;2022-08-03T21:30:01;7.60;;;1.80;;
19965;SDS011;10144;50.874;4.762;2022-08-03T21:35:54;5.78;;;1.60;;
19965;SDS011;10144;50.874;4.762;2022-08-03T21:41:53;3.47;;;1.48;;
19965;SDS011;10144;50.874;4.762;2022-08-03T21:47:42;3.17;;;1.45;;
19965;SDS011;10144;50.874;4.762;2022-08-03T21:53:36;4.68;;;1.67;;
19965;SDS011;10144;50.874;4.762;2022-08-03T22:02:28;5.07;;;1.48;;
19965;SDS011;10144;50.874;4.762;2022-08-03T22:14:58;3.03;;;1.45;;
19965;SDS011;10144;50.874;4.762;2022-08-03T22:29:00;4.53;;;1.92;;
